Time;durP1;ratioP1;P1;durP2;ratioP2;P2;SDS_P1;SDS_P2;PMS_P1;PMS_P2;Temp;Humidity;BMP_temperature;BMP_pressure;BME280_temperature;BME280_humidity;BME280_pressure;Samples;Min_cycle;Max_cycle;Signal;HPM_P1;HPM_P2
2022/01/08 00:01:11;;;;;;;4.83;4.08;;;;;;;9.73;51.35;100535.55;1809957;78;21021;-63
2022/01/08 00:03:37;;;;;;;5.25;4.42;;;;;;;9.72;51.33;100528.09;1792998;79;21599;-64
2022/01/08 00:06:03;;;;;;;5.55;4.35;;;;;;;9.72;51.34;100519.30;1793148;80;21037;-63
2022/01/08 00:08:31;;;;;;;5.70;4.22;;;;;;;9.71;51.31;100510.98;1793347;79;21517;-62
2022/01/08 00:10:57;;;;;;;5.62;4.28;;;;;;;9.70;51.31;100517.28;1794422;78;21157;-62
2022/01/08 00:13:24;;;;;;;6.45;4.83;;;;;;;9.69;51.31;100514.27;1806358;77;21040;-63
2022/01/08 00:15:50;;;;;;;5.40;4.72;;;;;;;9.69;51.31;100522.23;1840181;77;21037;-63
2022/01/08 00:18:16;;;;;;;6.53;5.12;;;;;;;9.68;51.30;100520.08;1798896;78;21449;-62
2022/01/08 00:20:43;;;;;;;6.12;5.20;;;;;;;9.67;51.31;100524.19;1793324;79;20994;-63
2022/01/08 00:23:11;;;;;;;6.08;4.97;;;;;;;9.65;51.29;100521.67;1793119;80;22305;-63
2022/01/08 00:25:38;;;;;;;6.33;5.22;;;;;;;9.65;51.28;100528.30;1796217;79;21508;-63
2022/01/08 00:28:04;;;;;;;7.33;5.47;;;;;;;9.64;51.27;100530.12;1800248;78;21028;-63
2022/01/08 00:30:31;;;;;;;6.12;4.92;;;;;;;9.64;51.26;100534.11;1799189;79;21979;-63
2022/01/08 00:32:59;;;;;;;5.87;4.78;;;;;;;9.63;51.25;100528.44;1799073;79;21013;-63
2022/01/08 00:35:27;;;;;;;6.55;5.15;;;;;;;9.64;51.25;100530.62;1800064;78;21032;-63
2022/01/08 00:40:20;;;;;;;7.20;5.90;;;;;;;9.66;51.23;100537.95;1870307;76;28621;-63
2022/01/08 00:42:46;;;;;;;7.53;5.72;;;;;;;9.62;51.22;100532.59;1800538;77;21015;-63
2022/01/08 00:45:12;;;;;;;5.97;5.17;;;;;;;9.59;51.20;100527.05;1807293;78;21199;-63
2022/01/08 00:47:39;;;;;;;7.30;5.67;;;;;;;9.60;51.18;100538.50;1826379;78;20926;-63
2022/01/08 00:50:06;;;;;;;6.80;5.55;;;;;;;9.59;51.19;100534.19;1826502;78;21041;-62
2022/01/08 00:52:33;;;;;;;6.83;5.42;;;;;;;9.58;51.16;100524.07;1795485;78;20961;-64
2022/01/08 00:55:00;;;;;;;7.05;5.50;;;;;;;9.57;51.16;100531.67;1794291;79;21009;-64
2022/01/08 00:57:26;;;;;;;6.08;5.47;;;;;;;9.57;51.15;100535.65;1793887;80;21092;-61
2022/01/08 00:59:52;;;;;;;7.20;5.30;;;;;;;9.57;51.12;100537.47;1794241;79;20965;-62
2022/01/08 01:02:19;;;;;;;7.37;5.80;;;;;;;9.56;51.12;100534.45;1828151;77;20910;-63
2022/01/08 01:04:45;;;;;;;7.62;5.47;;;;;;;9.55;51.14;100541.59;1829736;77;21663;-62
2022/01/08 01:07:13;;;;;;;7.05;5.87;;;;;;;9.54;51.14;100534.63;1826045;78;21012;-64
2022/01/08 01:09:39;;;;;;;5.95;5.30;;;;;;;9.54;51.10;100525.80;1825568;78;21134;-63
2022/01/08 01:12:07;;;;;;;6.10;5.50;;;;;;;9.53;51.13;100531.61;1824260;77;21005;-62
2022/01/08 01:14:34;;;;;;;6.78;6.03;;;;;;;9.52;51.09;100531.28;1826305;78;21030;-63
2022/01/08 01:17:00;;;;;;;7.00;5.58;;;;;;;9.51;51.12;100530.92;1826817;78;21026;-64
2022/01/08 01:19:27;;;;;;;6.12;5.20;;;;;;;9.50;51.09;100523.92;1825227;77;20986;-62
2022/01/08 01:21:55;;;;;;;6.55;5.30;;;;;;;9.50;51.08;100523.92;1841784;77;21660;-64
2022/01/08 01:24:24;;;;;;;5.97;5.33;;;;;;;9.51;51.10;100523.45;1825222;78;20991;-63
2022/01/08 01:48:26;;;;;;;8.68;6.05;;;;;;;9.40;51.15;100518.63;1820308;78;21132;-61
2022/01/08 01:50:52;;;;;;;7.15;5.78;;;;;;;9.40;51.15;100528.41;1819857;78;21032;-63
2022/01/08 01:53:19;;;;;;;6.62;5.70;;;;;;;9.38;51.17;100521.92;1798908;78;21080;-63
2022/01/08 01:55:48;;;;;;;6.30;5.37;;;;;;;9.38;51.15;100521.92;1804336;78;21017;-62
2022/01/08 01:58:15;;;;;;;7.40;6.15;;;;;;;9.38;51.12;100519.77;1793941;78;21091;-63
2022/01/08 02:00:46;;;;;;;7.70;6.45;;;;;;;9.37;51.11;100522.09;1793984;78;21104;-63
2022/01/08 02:03:12;;;;;;;6.25;5.62;;;;;;;9.37;51.11;100522.09;1754750;80;21102;-63
2022/01/08 02:05:39;;;;;;;7.78;6.20;;;;;;;9.38;51.09;100526.39;1748729;81;21030;-63
2022/01/08 02:08:05;;;;;;;6.62;5.90;;;;;;;9.36;51.10;100512.44;1773409;80;21070;-63
2022/01/08 02:10:32;;;;;;;8.38;6.37;;;;;;;9.36;51.07;100518.58;1742750;81;21033;-63
2022/01/08 02:12:59;;;;;;;7.08;6.20;;;;;;;9.36;51.04;100521.72;1739546;82;21586;-62
2022/01/08 02:15:25;;;;;;;7.67;6.33;;;;;;;9.36;51.04;100522.55;1740569;81;21037;-63
2022/01/08 02:17:51;;;;;;;6.53;5.80;;;;;;;9.36;50.99;100522.55;1739862;82;21585;-62
2022/01/08 02:20:18;;;;;;;7.30;6.55;;;;;;;9.35;51.02;100516.05;1747719;82;21568;-62
2022/01/08 02:22:45;;;;;;;7.12;6.08;;;;;;;9.34;50.98;100514.40;1747738;81;21061;-63
2022/01/08 02:25:12;;;;;;;8.58;6.70;;;;;;;9.34;50.97;100509.09;1747830;82;21063;-62
2022/01/08 02:27:39;;;;;;;9.23;6.72;;;;;;;9.33;50.96;100505.62;1784949;80;21000;-62
2022/01/08 02:30:06;;;;;;;8.18;6.55;;;;;;;9.33;50.96;100502.11;1768737;80;21645;-62
2022/01/08 02:32:32;;;;;;;7.47;6.42;;;;;;;9.32;50.94;100509.23;1748737;80;21080;-60
2022/01/08 02:34:59;;;;;;;7.47;6.33;;;;;;;9.32;50.94;100504.42;1747955;82;21070;-63
2022/01/08 02:37:29;;;;;;;8.60;6.75;;;;;;;9.32;50.94;100488.52;1747832;82;22084;-62
2022/01/08 02:39:53;;;;;;;8.15;6.95;;;;;;;9.30;50.91;100484.67;1739997;82;21030;-62
2022/01/08 02:42:20;;;;;;;7.72;6.55;;;;;;;9.31;50.91;100492.13;1734892;81;21058;-63
2022/01/08 02:44:48;;;;;;;9.58;6.85;;;;;;;9.28;50.91;100487.13;1730192;82;21081;-63
2022/01/08 02:47:16;;;;;;;9.30;7.10;;;;;;;9.25;50.94;100486.44;1742539;82;20994;-62
2022/01/08 02:49:43;;;;;;;9.35;7.05;;;;;;;9.23;50.97;100485.73;1748373;79;23277;-61
2022/01/08 02:52:10;;;;;;;7.47;6.22;;;;;;;9.22;50.99;100487.20;1734209;81;21024;-62
2022/01/08 02:54:37;;;;;;;8.18;6.67;;;;;;;9.20;50.98;100487.34;1734204;81;21029;-63
2022/01/08 02:57:04;;;;;;;10.00;7.47;;;;;;;9.20;50.97;100493.13;1734679;82;21574;-61
2022/01/08 02:59:30;;;;;;;9.05;7.25;;;;;;;9.19;51.00;100483.50;1735255;81;21041;-62
2022/01/08 03:01:56;;;;;;;9.53;7.35;;;;;;;9.18;50.98;100490.62;1756670;80;22475;-62
2022/01/08 03:04:23;;;;;;;8.95;7.30;;;;;;;9.17;50.99;100492.08;1764668;80;20995;-62
2022/01/08 03:06:49;;;;;;;8.43;7.05;;;;;;;9.17;51.02;100487.60;1763576;81;21019;-63
2022/01/08 03:09:15;;;;;;;8.88;7.17;;;;;;;9.15;51.03;100493.53;1764656;81;21030;-62
2022/01/08 03:11:43;;;;;;;9.28;7.85;;;;;;;9.14;51.03;100493.20;1769887;80;21570;-64
2022/01/08 03:14:09;;;;;;;7.70;6.90;;;;;;;9.14;51.04;100489.73;1774236;80;22011;-62
2022/01/08 03:16:36;;;;;;;8.50;7.58;;;;;;;9.12;51.05;100495.16;1761619;81;21027;-62
2022/01/08 03:19:09;;;;;;;9.58;8.13;;;;;;;9.12;51.05;100493.01;1734652;82;21073;-62
2022/01/08 03:21:35;;;;;;;9.48;7.70;;;;;;;9.11;51.04;100492.15;1733755;82;21058;-62
2022/01/08 03:24:01;;;;;;;8.55;7.65;;;;;;;9.11;51.02;100492.64;1735285;81;21109;-62
2022/01/08 03:26:28;;;;;;;8.68;7.70;;;;;;;9.10;51.04;100501.09;1734224;81;21093;-63
2022/01/08 03:28:55;;;;;;;8.73;7.03;;;;;;;9.10;51.07;100489.62;1734260;82;20979;-61
2022/01/08 03:31:23;;;;;;;7.90;7.10;;;;;;;9.08;51.04;100493.77;1759475;80;21023;-61
2022/01/08 03:33:49;;;;;;;8.10;6.90;;;;;;;9.08;51.04;100495.56;1779411;80;21048;-62
2022/01/08 03:36:16;;;;;;;9.15;7.55;;;;;;;9.08;51.06;100488.94;1789195;80;21088;-62
2022/01/08 03:38:43;;;;;;;7.87;7.08;;;;;;;9.07;51.04;100490.76;1769486;80;21095;-62
2022/01/08 03:41:09;;;;;;;8.53;7.70;;;;;;;9.07;51.04;100488.61;1771668;80;21014;-62
2022/01/08 03:43:36;;;;;;;10.03;8.53;;;;;;;9.07;51.02;100487.28;1788633;78;21092;-62
2022/01/08 03:46:04;;;;;;;8.73;6.92;;;;;;;9.06;51.02;100491.75;1819386;78;21039;-62
2022/01/08 03:48:44;;;;;;;8.53;7.25;;;;;;;9.05;51.03;100494.87;1819377;78;20993;-63
2022/01/08 03:51:00;;;;;;;9.23;7.62;;;;;;;9.04;51.03;100497.19;1798209;78;21959;-62
2022/01/08 03:53:27;;;;;;;9.23;7.37;;;;;;;9.04;51.03;100495.03;1752882;81;20999;-61
2022/01/08 03:55:53;;;;;;;7.90;7.10;;;;;;;9.04;51.04;100497.69;1753023;81;21025;-63
2022/01/08 03:58:20;;;;;;;7.95;7.15;;;;;;;9.03;51.04;100491.52;1754160;80;21529;-62
2022/01/08 04:00:47;;;;;;;8.00;7.05;;;;;;;9.03;51.02;100493.34;1752868;81;21067;-62
2022/01/08 04:03:18;;;;;;;9.23;7.45;;;;;;;9.03;51.02;100494.67;1753111;81;21132;-63
2022/01/08 04:05:41;;;;;;;8.83;7.08;;;;;;;9.03;51.01;100498.64;1752775;81;21053;-62
2022/01/08 04:08:09;;;;;;;7.87;6.95;;;;;;;9.01;51.01;100486.85;1754842;80;21045;-62
2022/01/08 04:10:35;;;;;;;8.70;7.35;;;;;;;9.01;51.01;100482.88;1753069;80;21021;-62
2022/01/08 04:13:09;;;;;;;9.35;7.53;;;;;;;9.00;50.99;100481.69;1756001;81;21556;-62
2022/01/08 04:15:35;;;;;;;8.23;6.65;;;;;;;9.00;50.99;100479.03;1770736;80;22142;-61
2022/01/08 04:17:59;;;;;;;9.30;7.45;;;;;;;8.98;51.00;100469.92;1777712;79;21009;-62
2022/01/08 04:20:25;;;;;;;8.05;6.97;;;;;;;8.97;51.00;100460.78;1764268;81;20991;-62
2022/01/08 04:22:52;;;;;;;8.98;7.03;;;;;;;8.96;51.00;100452.00;1764355;81;21038;-62
2022/01/08 04:25:21;;;;;;;8.95;7.15;;;;;;;8.97;51.00;100466.08;1752597;81;21081;-63
2022/01/08 04:27:47;;;;;;;7.75;6.58;;;;;;;8.96;51.02;100470.55;1734152;82;21174;-62
2022/01/08 04:30:14;;;;;;;9.58;7.58;;;;;;;8.96;50.99;100469.70;1734081;82;21531;-63
2022/01/08 04:32:40;;;;;;;8.98;7.05;;;;;;;8.95;51.00;100473.34;1759155;81;21023;-62
2022/01/08 04:35:07;;;;;;;7.97;7.00;;;;;;;8.96;50.97;100477.64;1784049;79;21030;-61
2022/01/08 04:37:34;;;;;;;7.30;6.58;;;;;;;8.94;51.00;100481.75;1765985;80;21044;-63
2022/01/08 04:40:00;;;;;;;9.20;6.65;;;;;;;8.93;51.00;100472.14;1765894;80;21191;-62
2022/01/08 04:42:27;;;;;;;8.23;7.37;;;;;;;8.93;50.98;100476.12;1746277;81;21077;-63
2022/01/08 04:44:55;;;;;;;8.88;6.95;;;;;;;8.92;50.98;100474.92;1781867;80;21060;-62
2022/01/08 04:47:21;;;;;;;8.30;7.12;;;;;;;8.92;50.98;100478.91;1781553;80;21785;-62
2022/01/08 04:49:47;;;;;;;9.55;6.67;;;;;;;8.90;50.95;100478.20;1750390;82;21068;-62
2022/01/08 04:52:14;;;;;;;8.70;6.83;;;;;;;8.92;50.94;100482.38;1750796;82;21788;-63
2022/01/08 04:54:40;;;;;;;8.53;7.08;;;;;;;8.91;50.93;100482.55;1823186;78;21065;-62
2022/01/08 04:57:09;;;;;;;8.00;6.40;;;;;;;8.90;50.94;100490.96;1823463;77;20978;-62
2022/01/08 04:59:36;;;;;;;9.58;7.62;;;;;;;8.90;50.93;100490.12;1806516;77;21028;-61
2022/01/08 05:02:03;;;;;;;9.78;7.20;;;;;;;8.88;50.90;100490.76;1791182;79;21575;-62
2022/01/08 05:04:29;;;;;;;7.62;6.40;;;;;;;8.87;50.91;100489.10;1790883;80;21350;-62
2022/01/08 05:06:56;;;;;;;8.18;7.05;;;;;;;8.88;50.89;100492.09;1792980;78;21535;-62
2022/01/08 05:09:22;;;;;;;7.90;6.75;;;;;;;8.87;50.88;100485.13;1790939;80;21056;-62
2022/01/08 05:11:48;;;;;;;8.28;6.45;;;;;;;8.85;50.89;100483.44;1790965;79;21477;-62
2022/01/08 05:14:15;;;;;;;7.03;6.33;;;;;;;8.85;50.88;100482.61;1791091;79;20986;-62
2022/01/08 05:16:44;;;;;;;9.35;7.00;;;;;;;8.84;50.89;100485.72;1792088;78;21174;-61
2022/01/08 05:19:10;;;;;;;9.55;6.92;;;;;;;8.84;50.85;100491.52;1791070;80;21061;-62
2022/01/08 05:21:38;;;;;;;8.63;6.90;;;;;;;8.84;50.85;100491.52;1803707;77;21502;-63
2022/01/08 05:24:05;;;;;;;6.78;6.08;;;;;;;8.83;50.84;100493.84;1825759;77;21037;-64
2022/01/08 05:26:31;;;;;;;7.42;6.42;;;;;;;8.82;50.84;100489.00;1843104;77;21064;-66
2022/01/08 05:28:58;;;;;;;7.72;6.10;;;;;;;8.82;50.82;100499.60;1843078;77;23312;-62
2022/01/08 05:31:25;;;;;;;7.25;6.40;;;;;;;8.83;50.79;100497.81;1836186;77;20987;-61
2022/01/08 05:33:51;;;;;;;7.45;6.17;;;;;;;8.80;50.78;100497.58;1804918;78;21446;-62
2022/01/08 05:36:18;;;;;;;7.83;6.33;;;;;;;8.79;50.75;100506.52;1823765;78;21010;-63
2022/01/08 05:38:44;;;;;;;9.10;6.80;;;;;;;8.79;50.77;100502.55;1823341;78;21021;-62
2022/01/08 05:41:11;;;;;;;8.23;6.15;;;;;;;8.79;50.74;100498.57;1815989;78;21233;-61
2022/01/08 05:43:37;;;;;;;8.80;6.58;;;;;;;8.79;50.74;100507.02;1815698;78;21497;-63
2022/01/08 05:46:03;;;;;;;7.45;6.25;;;;;;;8.78;50.74;100510.63;1829136;78;20993;-62
2022/01/08 05:48:29;;;;;;;7.08;6.17;;;;;;;8.77;50.71;100506.28;1814767;78;21526;-61
2022/01/08 05:50:56;;;;;;;7.10;6.30;;;;;;;8.76;50.72;100502.80;1793382;79;21017;-62
2022/01/08 05:53:22;;;;;;;7.97;6.08;;;;;;;8.76;50.71;100505.95;1782620;79;23308;-62
2022/01/08 05:55:49;;;;;;;7.37;5.92;;;;;;;8.75;50.70;100509.56;1782387;79;20994;-63
2022/01/08 05:58:16;;;;;;;6.97;6.03;;;;;;;8.75;50.70;100512.21;1783584;79;21069;-61
2022/01/08 06:00:42;;;;;;;7.78;5.80;;;;;;;8.74;50.67;100515.36;1782391;80;21078;-62
2022/01/08 06:03:09;;;;;;;7.30;5.90;;;;;;;8.74;50.67;100509.23;1782868;79;21497;-61
2022/01/08 06:05:36;;;;;;;7.83;6.92;;;;;;;8.74;50.67;100514.52;1783166;78;21185;-62
2022/01/08 06:08:02;;;;;;;7.42;6.55;;;;;;;8.73;50.65;100518.13;1783567;79;21482;-63
2022/01/08 06:10:29;;;;;;;7.10;5.90;;;;;;;8.72;50.64;100521.28;1782445;80;21022;-62
2022/01/08 06:12:56;;;;;;;7.50;6.70;;;;;;;8.72;50.63;100518.63;1782643;79;21521;-61
2022/01/08 06:15:22;;;;;;;8.60;6.35;;;;;;;8.72;50.64;100530.55;1783594;79;21081;-62
2022/01/08 06:17:48;;;;;;;6.78;6.05;;;;;;;8.72;50.62;100531.05;1782476;79;21025;-62
2022/01/08 06:20:15;;;;;;;8.15;6.25;;;;;;;8.71;50.61;100530.22;1782474;80;21030;-61
2022/01/08 06:22:41;;;;;;;6.97;6.12;;;;;;;8.72;50.61;100528.40;1782348;79;20995;-63
2022/01/08 06:25:09;;;;;;;6.45;5.55;;;;;;;8.71;50.59;100524.92;1783761;79;21642;-62
2022/01/08 06:27:35;;;;;;;9.10;6.80;;;;;;;8.71;50.56;100531.55;1821553;78;20990;-63
2022/01/08 06:30:03;;;;;;;6.62;5.92;;;;;;;8.70;50.57;100519.26;1816029;78;21966;-63
2022/01/08 06:32:30;;;;;;;6.28;5.50;;;;;;;8.71;50.56;100520.09;1810812;79;21010;-62
2022/01/08 06:34:56;;;;;;;6.78;5.90;;;;;;;8.71;50.56;100520.09;1806153;78;21026;-61
2022/01/08 06:37:23;;;;;;;7.83;5.90;;;;;;;8.71;50.54;100517.44;1782587;79;21534;-62
2022/01/08 06:39:50;;;;;;;7.25;5.40;;;;;;;8.71;50.54;100519.63;1782440;80;21462;-64
2022/01/08 06:42:17;;;;;;;6.70;5.65;;;;;;;8.71;50.50;100516.97;1783601;79;21138;-61
2022/01/08 06:44:43;;;;;;;5.95;5.05;;;;;;;8.72;50.52;100519.95;1782332;79;21077;-63
2022/01/08 06:47:10;;;;;;;6.53;5.40;;;;;;;8.72;50.48;100519.95;1782715;79;21510;-62
2022/01/08 06:49:36;;;;;;;6.90;5.72;;;;;;;8.73;50.48;100524.76;1785797;78;21065;-63
2022/01/08 06:52:03;;;;;;;6.40;5.47;;;;;;;8.72;50.47;100526.58;1825160;78;21565;-63
2022/01/08 06:54:31;;;;;;;6.37;5.03;;;;;;;8.73;50.46;100529.59;1839810;78;21132;-61
2022/01/08 06:56:57;;;;;;;5.85;5.22;;;;;;;8.74;50.44;100526.45;1839797;78;21038;-61
2022/01/08 06:59:24;;;;;;;5.75;4.62;;;;;;;8.74;50.44;100527.77;1790301;78;21541;-62
2022/01/08 07:01:50;;;;;;;5.85;5.25;;;;;;;8.75;50.43;100534.27;1782390;80;21755;-62
2022/01/08 07:04:16;;;;;;;5.67;4.95;;;;;;;8.76;50.42;100537.25;1792173;78;21014;-61
2022/01/08 07:06:43;;;;;;;5.70;5.03;;;;;;;8.77;50.38;100541.59;1814188;79;21125;-62
2022/01/08 07:09:10;;;;;;;5.97;4.85;;;;;;;8.78;50.38;100537.12;1814541;79;21014;-62
2022/01/08 07:11:36;;;;;;;6.90;5.58;;;;;;;8.78;50.37;100539.27;1814417;79;21037;-60
2022/01/08 07:14:03;;;;;;;6.30;5.00;;;;;;;8.81;50.33;100548.78;1814616;79;21557;-61
2022/01/08 07:16:29;;;;;;;6.60;5.35;;;;;;;8.82;50.33;100543.81;1813389;78;21092;-61
2022/01/08 07:18:56;;;;;;;5.75;5.08;;;;;;;8.83;50.31;100544.17;1814575;78;21037;-61
2022/01/08 07:21:22;;;;;;;4.92;4.37;;;;;;;8.85;50.28;100545.70;1813318;79;21798;-62
2022/01/08 07:23:49;;;;;;;6.40;5.60;;;;;;;8.85;50.23;100539.08;1814706;79;21495;-62
2022/01/08 07:26:16;;;;;;;7.30;5.47;;;;;;;8.88;50.23;100534.48;1814505;78;20998;-61
2022/01/08 07:28:42;;;;;;;5.87;4.85;;;;;;;8.90;50.20;100537.83;1814481;79;21057;-62
2022/01/08 07:31:09;;;;;;;5.92;4.85;;;;;;;8.92;50.19;100542.00;1814852;77;21124;-62
2022/01/08 07:33:36;;;;;;;6.35;4.92;;;;;;;8.93;50.15;100544.19;1822064;77;21011;-61
2022/01/08 07:36:02;;;;;;;5.58;4.92;;;;;;;8.95;50.15;100544.39;1814544;79;20994;-62
2022/01/08 07:38:29;;;;;;;5.87;4.62;;;;;;;8.97;50.13;100542.44;1813686;79;21490;-62
2022/01/08 07:40:55;;;;;;;5.80;4.53;;;;;;;8.99;50.08;100539.16;1818390;78;21084;-60
2022/01/08 07:43:22;;;;;;;4.87;4.08;;;;;;;9.00;50.06;100544.83;1825935;78;21051;-62
2022/01/08 07:45:48;;;;;;;5.17;4.55;;;;;;;9.02;50.04;100533.59;1825949;78;21033;-62
2022/01/08 07:48:15;;;;;;;5.12;4.62;;;;;;;9.04;50.02;100533.47;1826055;78;21001;-63
2022/01/08 07:50:41;;;;;;;5.65;4.72;;;;;;;9.05;49.99;100538.60;1824849;78;21021;-61
2022/01/08 07:53:08;;;;;;;8.18;5.12;;;;;;;9.08;49.98;100541.95;1825988;78;21025;-61
2022/01/08 07:55:34;;;;;;;5.50;4.58;;;;;;;9.09;49.93;100543.14;1825358;77;22312;-62
2022/01/08 07:58:01;;;;;;;6.05;4.37;;;;;;;9.11;49.90;100525.78;1837735;77;21087;-61
2022/01/08 08:00:27;;;;;;;5.87;4.65;;;;;;;9.13;49.87;100527.80;1825910;78;21017;-62
2022/01/08 08:02:54;;;;;;;4.92;4.40;;;;;;;9.15;49.84;100534.63;1826141;78;21053;-62
2022/01/08 08:05:20;;;;;;;4.53;3.77;;;;;;;9.15;49.82;100522.70;1823644;78;20986;-62
2022/01/08 08:07:47;;;;;;;5.03;4.30;;;;;;;9.17;49.78;100526.05;1799362;78;23328;-62
2022/01/08 08:10:17;;;;;;;5.80;4.55;;;;;;;9.19;49.77;100528.09;1793534;79;21028;-61
2022/01/08 08:12:44;;;;;;;6.62;4.45;;;;;;;9.21;49.73;100527.93;1794392;78;21501;-64
2022/01/08 08:15:17;;;;;;;4.60;4.10;;;;;;;9.23;49.71;100522.86;1793583;79;21001;-62
2022/01/08 08:17:41;;;;;;;4.58;3.95;;;;;;;9.24;49.66;100534.30;1793256;79;21069;-60
2022/01/08 08:20:09;;;;;;;5.15;4.37;;;;;;;9.28;49.64;100533.53;1793496;80;21061;-61
2022/01/08 08:22:35;;;;;;;5.47;4.60;;;;;;;9.28;49.61;100522.92;1794537;78;20981;-62
2022/01/08 08:25:02;;;;;;;5.87;4.33;;;;;;;9.30;49.61;100528.42;1793479;79;21029;-62
2022/01/08 08:27:29;;;;;;;5.37;3.92;;;;;;;9.31;49.55;100523.95;1793487;80;21037;-61
2022/01/08 08:29:56;;;;;;;4.65;3.85;;;;;;;9.33;49.51;100521.99;1794227;78;21509;-63
2022/01/08 08:32:22;;;;;;;6.55;4.67;;;;;;;9.35;49.50;100526.66;1822285;78;21129;-62
2022/01/08 08:34:51;;;;;;;5.12;4.58;;;;;;;9.36;49.46;100523.05;1806360;78;21540;-63
2022/01/08 08:37:17;;;;;;;6.62;3.87;;;;;;;9.39;49.45;100516.15;1817910;77;20999;-62
2022/01/08 08:39:44;;;;;;;4.72;4.20;;;;;;;9.41;49.38;100521.65;1833599;77;21108;-61
2022/01/08 08:42:10;;;;;;;5.72;4.10;;;;;;;9.45;49.34;100512.42;1829477;77;21057;-63
2022/01/08 08:44:37;;;;;;;4.47;3.85;;;;;;;9.49;49.32;100514.81;1839689;78;21982;-61
2022/01/08 08:47:04;;;;;;;4.78;4.08;;;;;;;9.52;49.25;100512.71;1820872;78;21026;-63
2022/01/08 08:49:31;;;;;;;5.20;3.70;;;;;;;9.59;49.24;100507.66;1782298;80;21047;-61
2022/01/08 08:51:57;;;;;;;5.30;4.60;;;;;;;9.65;49.16;100511.89;1782407;79;21002;-62
2022/01/08 08:54:23;;;;;;;4.90;4.20;;;;;;;9.71;49.08;100511.81;1782486;79;21549;-62
2022/01/08 08:56:49;;;;;;;5.12;3.75;;;;;;;9.79;49.04;100503.12;1783371;79;23294;-62
2022/01/08 08:59:16;;;;;;;5.62;3.87;;;;;;;9.87;48.98;100507.25;1782441;79;21025;-62
2022/01/08 09:01:42;;;;;;;4.28;3.83;;;;;;;9.95;48.89;100504.70;1787419;78;21022;-63
2022/01/08 09:04:09;;;;;;;6.03;4.62;;;;;;;10.03;48.85;100503.97;1818088;78;21034;-64
2022/01/08 09:06:35;;;;;;;4.90;3.62;;;;;;;10.11;48.81;100511.20;1810336;79;21057;-61
2022/01/08 09:09:02;;;;;;;6.78;3.92;;;;;;;10.17;48.74;100498.66;1810372;79;21123;-62
2022/01/08 09:11:29;;;;;;;5.28;4.42;;;;;;;10.26;48.69;100500.44;1808973;79;21451;-61
2022/01/08 09:13:55;;;;;;;4.10;3.70;;;;;;;10.35;48.64;100499.59;1778686;79;20974;-62
2022/01/08 09:16:22;;;;;;;5.00;3.98;;;;;;;10.43;48.57;100485.07;1782589;79;21081;-62
2022/01/08 09:18:48;;;;;;;5.78;4.47;;;;;;;10.51;48.46;100478.19;1782857;80;20966;-62
2022/01/08 09:21:15;;;;;;;4.90;3.60;;;;;;;10.59;48.42;100485.73;1783474;79;21088;-63
2022/01/08 09:23:42;;;;;;;5.08;4.15;;;;;;;10.68;48.33;100481.36;1782463;79;21212;-61
2022/01/08 09:26:08;;;;;;;5.40;4.22;;;;;;;10.75;48.28;100477.09;1782481;80;21022;-64
2022/01/08 09:28:36;;;;;;;5.50;3.90;;;;;;;10.83;48.21;100472.34;1782540;79;21018;-62
2022/01/08 09:31:03;;;;;;;5.28;4.62;;;;;;;10.92;48.15;100481.24;1794735;79;21026;-61
2022/01/08 09:33:31;;;;;;;5.70;3.75;;;;;;;11.00;48.07;100471.50;1783182;78;21069;-61
2022/01/08 09:35:58;;;;;;;4.60;4.05;;;;;;;11.07;48.00;100461.58;1782572;80;21522;-62
2022/01/08 09:38:24;;;;;;;4.53;3.75;;;;;;;11.13;47.94;100460.48;1783532;79;21026;-64
2022/01/08 09:40:51;;;;;;;6.12;4.15;;;;;;;11.20;47.89;100448.25;1783347;78;21781;-61
2022/01/08 09:43:17;;;;;;;5.72;3.85;;;;;;;11.29;47.88;100476.23;1822701;78;21106;-62
2022/01/08 09:45:44;;;;;;;4.10;3.70;;;;;;;11.36;47.78;100460.00;1839699;77;21045;-63
2022/01/08 09:48:11;;;;;;;4.80;4.12;;;;;;;11.43;47.71;100457.53;1820310;78;20999;-62
2022/01/08 09:50:37;;;;;;;4.62;3.98;;;;;;;11.50;47.65;100450.10;1782494;80;20982;-61
2022/01/08 09:53:05;;;;;;;6.92;4.03;;;;;;;11.59;47.55;100439.02;1782550;79;21544;-63
2022/01/08 09:55:32;;;;;;;4.67;3.70;;;;;;;11.68;47.49;100437.23;1783408;79;21014;-62
2022/01/08 09:57:59;;;;;;;4.15;3.37;;;;;;;11.76;47.41;100433.27;1782624;80;21054;-62
2022/01/08 10:00:25;;;;;;;4.20;3.75;;;;;;;11.85;47.37;100441.64;1782420;79;21654;-62
2022/01/08 10:02:52;;;;;;;4.58;4.05;;;;;;;11.94;47.32;100447.88;1783379;78;21002;-63
2022/01/08 10:05:18;;;;;;;4.92;4.10;;;;;;;12.02;47.27;100444.42;1783538;79;21041;-61
2022/01/08 10:07:59;;;;;;;3.80;3.40;;;;;;;12.08;47.23;100435.28;1787802;78;21088;-62
2022/01/08 10:10:25;;;;;;;4.67;3.80;;;;;;;12.13;47.13;100438.30;1828750;78;21101;-61
2022/01/08 10:12:57;;;;;;;4.17;3.77;;;;;;;12.17;47.14;100428.16;1792996;79;22120;-62
2022/01/08 10:18:33;;;;;;;5.42;4.05;;;;;;;12.22;47.06;100427.16;1782617;79;20994;-62
2022/01/08 10:21:02;;;;;;;5.10;3.95;;;;;;;12.25;47.03;100427.36;1782656;79;21057;-62
2022/01/08 10:23:33;;;;;;;3.65;3.08;;;;;;;12.25;46.98;100429.52;1783703;79;21092;-62
2022/01/08 10:26:08;;;;;;;4.17;3.77;;;;;;;12.28;46.90;100415.02;1782499;79;20958;-61
2022/01/08 10:28:51;;;;;;;3.98;3.33;;;;;;;12.32;46.86;100419.88;1783876;79;21002;-63
2022/01/08 10:31:25;;;;;;;5.03;3.87;;;;;;;12.37;46.80;100411.39;1804231;79;21522;-62
2022/01/08 10:34:03;;;;;;;3.52;3.22;;;;;;;12.43;46.75;100416.56;1797397;79;20990;-62
2022/01/08 10:36:36;;;;;;;3.98;3.45;;;;;;;12.48;46.68;100395.09;1777205;80;22137;-63
2022/01/08 10:39:08;;;;;;;4.12;3.33;;;;;;;12.56;46.60;100400.42;1783563;79;21616;-63
2022/01/08 10:41:41;;;;;;;4.47;3.72;;;;;;;12.64;46.59;100410.27;1782435;79;21045;-62
2022/01/08 10:44:18;;;;;;;4.45;2.98;;;;;;;12.72;46.57;100433.43;1782549;80;21065;-62
2022/01/08 10:46:58;;;;;;;3.67;2.98;;;;;;;12.77;46.47;100419.94;1800766;78;21465;-62
2022/01/08 10:50:00;;;;;;;3.85;3.35;;;;;;;12.83;46.38;100395.78;1820206;78;21175;-61
2022/01/08 10:52:26;;;;;;;6.92;3.45;;;;;;;12.88;46.33;100404.09;1814590;78;21014;-64
2022/01/08 10:54:59;;;;;;;3.75;3.20;;;;;;;12.96;46.24;100397.45;1814576;78;21001;-62
2022/01/08 10:57:36;;;;;;;3.75;3.15;;;;;;;13.01;46.20;100404.94;1786456;79;21049;-62
2022/01/08 11:00:11;;;;;;;3.42;3.12;;;;;;;13.09;46.15;100408.92;1782384;80;20958;-61
2022/01/08 11:02:39;;;;;;;3.70;3.20;;;;;;;13.18;46.06;100409.25;1788152;78;21086;-62
2022/01/08 11:05:08;;;;;;;3.25;2.95;;;;;;;13.27;45.94;100400.75;1814539;79;21014;-62
2022/01/08 11:07:36;;;;;;;3.58;2.87;;;;;;;13.38;45.81;100411.58;1814510;79;21014;-64
2022/01/08 11:10:16;;;;;;;3.70;3.10;;;;;;;13.47;45.68;100397.22;1814532;79;21064;-62
2022/01/08 11:12:42;;;;;;;3.83;3.27;;;;;;;13.57;45.51;100391.17;1810463;78;21553;-63
2022/01/08 11:17:54;;;;;;;3.20;2.90;;;;;;;13.81;45.25;100364.08;1816448;78;21521;-61
2022/01/08 11:20:30;;;;;;;3.22;2.77;;;;;;;13.92;45.14;100371.67;1800079;78;21006;-62
2022/01/08 11:22:59;;;;;;;3.67;2.80;;;;;;;14.02;45.04;100350.09;1782368;80;21018;-62
2022/01/08 11:25:30;;;;;;;4.42;3.22;;;;;;;14.08;44.96;100362.77;1782430;79;20990;-62
2022/01/08 11:28:14;;;;;;;3.52;3.00;;;;;;;14.15;44.87;100337.50;1783239;78;21803;-63
2022/01/08 11:30:47;;;;;;;3.37;2.45;;;;;;;14.22;44.78;100338.46;1784209;79;21474;-60
2022/01/08 11:35:43;;;;;;;3.00;2.70;;;;;;;14.31;44.69;100332.54;1782757;79;21494;-62
2022/01/08 11:38:12;;;;;;;3.40;2.80;;;;;;;14.35;44.67;100336.52;1813265;78;21069;-62
2022/01/08 11:40:42;;;;;;;3.00;2.50;;;;;;;14.38;44.63;100331.34;1808393;78;21131;-62
2022/01/08 11:43:14;;;;;;;2.80;2.45;;;;;;;14.39;44.60;100328.98;1807817;78;21017;-62
2022/01/08 11:45:58;;;;;;;4.40;3.10;;;;;;;14.39;44.58;100328.49;1806935;79;21002;-62
2022/01/08 11:48:30;;;;;;;;;;;;;;;14.38;44.58;100321.98;1789720;79;21556;-62
2022/01/08 11:50:59;;;;;;;3.05;2.52;;;;;;;14.36;44.61;100321.64;1774836;78;20182;-62
2022/01/08 11:53:31;;;;;;;3.33;2.67;;;;;;;14.35;44.66;100314.65;1826639;78;21098;-63
2022/01/08 11:56:04;;;;;;;3.05;2.67;;;;;;;14.33;44.69;100311.81;1782814;79;21041;-62
2022/01/08 11:58:35;;;;;;;3.30;2.65;;;;;;;14.31;44.70;100312.02;1796978;78;21053;-62
2022/01/08 12:01:12;;;;;;;3.12;2.70;;;;;;;14.29;44.74;100312.70;1814694;78;21466;-62
2022/01/08 12:03:52;;;;;;;3.60;2.70;;;;;;;14.28;44.73;100310.20;1813351;78;21112;-61
2022/01/08 12:06:29;;;;;;;3.08;2.77;;;;;;;14.25;44.78;100319.89;1814774;79;21050;-61